sensor_id;sensor_type;location;lat;lon;timestamp;pressure;altitude;pressure_sealevel;temperature;humidity
35676;BME280;21790;42.668;23.298;2023-04-27T00:01:14;94386.66;;;16.31;32.73
35676;BME280;21790;42.668;23.298;2023-04-27T00:03:40;94390.47;;;16.34;32.44
35676;BME280;21790;42.668;23.298;2023-04-27T00:06:06;94393.53;;;16.30;32.66
35676;BME280;21790;42.668;23.298;2023-04-27T00:08:32;94389.69;;;16.22;32.71
35676;BME280;21790;42.668;23.298;2023-04-27T00:10:58;94397.81;;;16.20;32.88
35676;BME280;21790;42.668;23.298;2023-04-27T00:13:25;94411.00;;;16.25;32.53
35676;BME280;21790;42.668;23.298;2023-04-27T00:15:51;94400.34;;;16.24;32.67
35676;BME280;21790;42.668;23.298;2023-04-27T00:18:16;94398.31;;;16.13;32.87
35676;BME280;21790;42.668;23.298;2023-04-27T00:20:41;94409.94;;;16.01;33.01
35676;BME280;21790;42.668;23.298;2023-04-27T00:23:07;94414.28;;;16.13;32.60
35676;BME280;21790;42.668;23.298;2023-04-27T00:25:32;94408.69;;;16.07;32.77
35676;BME280;21790;42.668;23.298;2023-04-27T00:27:58;94407.16;;;16.06;33.13
35676;BME280;21790;42.668;23.298;2023-04-27T00:30:23;94395.03;;;16.04;33.01
35676;BME280;21790;42.668;23.298;2023-04-27T00:32:49;94400.78;;;15.89;33.00
35676;BME280;21790;42.668;23.298;2023-04-27T00:35:14;94402.06;;;15.94;32.73
35676;BME280;21790;42.668;23.298;2023-04-27T00:37:40;94401.06;;;15.85;33.55
35676;BME280;21790;42.668;23.298;2023-04-27T00:40:06;94402.56;;;15.81;33.19
35676;BME280;21790;42.668;23.298;2023-04-27T00:42:32;94397.22;;;15.83;33.40
35676;BME280;21790;42.668;23.298;2023-04-27T00:44:58;94395.44;;;15.74;33.04
35676;BME280;21790;42.668;23.298;2023-04-27T00:47:23;94402.25;;;15.68;32.83
35676;BME280;21790;42.668;23.298;2023-04-27T00:49:48;94403.53;;;15.67;33.00
35676;BME280;21790;42.668;23.298;2023-04-27T00:52:14;94402.78;;;15.77;33.01
35676;BME280;21790;42.668;23.298;2023-04-27T00:54:39;94405.03;;;15.62;33.04
35676;BME280;21790;42.668;23.298;2023-04-27T00:57:05;94405.84;;;15.74;32.99
35676;BME280;21790;42.668;23.298;2023-04-27T00:59:30;94406.31;;;15.67;33.34
35676;BME280;21790;42.668;23.298;2023-04-27T01:01:56;94413.88;;;15.61;32.88
35676;BME280;21790;42.668;23.298;2023-04-27T01:04:22;94405.78;;;15.63;32.92
35676;BME280;21790;42.668;23.298;2023-04-27T01:06:47;94413.13;;;15.55;33.18
35676;BME280;21790;42.668;23.298;2023-04-27T01:09:12;94414.91;;;15.58;33.21
35676;BME280;21790;42.668;23.298;2023-04-27T01:11:38;94421.91;;;15.47;33.61
35676;BME280;21790;42.668;23.298;2023-04-27T01:14:04;94421.75;;;15.62;33.27
35676;BME280;21790;42.668;23.298;2023-04-27T01:16:33;94419.72;;;15.63;33.23
35676;BME280;21790;42.668;23.298;2023-04-27T01:19:15;94419.19;;;15.53;33.06
35676;BME280;21790;42.668;23.298;2023-04-27T01:21:41;94422.91;;;15.44;33.29
35676;BME280;21790;42.668;23.298;2023-04-27T01:24:06;94425.47;;;15.48;33.24
35676;BME280;21790;42.668;23.298;2023-04-27T01:26:32;94433.59;;;15.52;33.34
35676;BME280;21790;42.668;23.298;2023-04-27T01:28:58;94426.28;;;15.54;33.11
35676;BME280;21790;42.668;23.298;2023-04-27T01:31:23;94431.50;;;15.41;33.35
35676;BME280;21790;42.668;23.298;2023-04-27T01:33:48;94426.91;;;15.32;33.77
35676;BME280;21790;42.668;23.298;2023-04-27T01:36:14;94431.69;;;15.26;34.07
35676;BME280;21790;42.668;23.298;2023-04-27T01:38:39;94422.22;;;15.07;34.25
35676;BME280;21790;42.668;23.298;2023-04-27T01:41:05;94427.78;;;15.07;33.75
35676;BME280;21790;42.668;23.298;2023-04-27T01:43:33;94443.28;;;15.19;33.93
35676;BME280;21790;42.668;23.298;2023-04-27T01:46:05;94439.63;;;15.02;33.89
35676;BME280;21790;42.668;23.298;2023-04-27T01:48:30;94443.25;;;15.14;33.96
35676;BME280;21790;42.668;23.298;2023-04-27T01:50:56;94437.94;;;15.10;33.77
35676;BME280;21790;42.668;23.298;2023-04-27T01:53:22;94436.94;;;15.13;34.06
35676;BME280;21790;42.668;23.298;2023-04-27T01:55:47;94440.38;;;14.97;34.20
35676;BME280;21790;42.668;23.298;2023-04-27T01:58:12;94437.88;;;14.99;33.95
35676;BME280;21790;42.668;23.298;2023-04-27T02:00:38;94436.56;;;14.94;33.98
35676;BME280;21790;42.668;23.298;2023-04-27T02:03:03;94435.06;;;14.99;34.38
35676;BME280;21790;42.668;23.298;2023-04-27T02:05:29;94433.81;;;15.00;33.70
35676;BME280;21790;42.668;23.298;2023-04-27T02:07:54;94438.66;;;15.05;34.01
35676;BME280;21790;42.668;23.298;2023-04-27T02:10:19;94431.00;;;14.94;34.22
35676;BME280;21790;42.668;23.298;2023-04-27T02:12:46;94436.56;;;14.94;33.83
35676;BME280;21790;42.668;23.298;2023-04-27T02:15:12;94435.88;;;15.05;33.94
35676;BME280;21790;42.668;23.298;2023-04-27T02:17:37;94433.84;;;15.05;33.69
35676;BME280;21790;42.668;23.298;2023-04-27T02:20:03;94444.69;;;14.98;34.02
35676;BME280;21790;42.668;23.298;2023-04-27T02:22:31;94438.66;;;15.05;33.72
35676;BME280;21790;42.668;23.298;2023-04-27T02:24:56;94439.69;;;15.07;33.50
35676;BME280;21790;42.668;23.298;2023-04-27T02:27:21;94439.44;;;15.11;33.51
35676;BME280;21790;42.668;23.298;2023-04-27T02:29:47;94449.50;;;15.03;33.60
35676;BME280;21790;42.668;23.298;2023-04-27T02:32:12;94438.69;;;15.11;33.80
35676;BME280;21790;42.668;23.298;2023-04-27T02:34:37;94437.44;;;15.17;33.41
35676;BME280;21790;42.668;23.298;2023-04-27T02:37:03;94444.47;;;15.07;33.29
35676;BME280;21790;42.668;23.298;2023-04-27T02:39:29;94452.78;;;15.01;33.95
35676;BME280;21790;42.668;23.298;2023-04-27T02:41:54;94443.22;;;15.08;33.26
35676;BME280;21790;42.668;23.298;2023-04-27T02:44:19;94445.00;;;15.11;33.30
35676;BME280;21790;42.668;23.298;2023-04-27T02:46:45;94443.31;;;15.25;33.24
35676;BME280;21790;42.668;23.298;2023-04-27T02:49:10;94455.66;;;15.18;33.31
35676;BME280;21790;42.668;23.298;2023-04-27T02:51:36;94447.59;;;15.20;32.77
35676;BME280;21790;42.668;23.298;2023-04-27T02:54:01;94451.66;;;15.25;32.87
35676;BME280;21790;42.668;23.298;2023-04-27T02:56:26;94447.28;;;15.13;33.16
35676;BME280;21790;42.668;23.298;2023-04-27T02:58:52;94457.16;;;15.14;33.33
35676;BME280;21790;42.668;23.298;2023-04-27T03:01:18;94460.94;;;15.05;33.31
35676;BME280;21790;42.668;23.298;2023-04-27T03:03:44;94449.28;;;15.06;33.12
35676;BME280;21790;42.668;23.298;2023-04-27T03:06:11;94459.66;;;15.06;32.93
35676;BME280;21790;42.668;23.298;2023-04-27T03:08:37;94456.56;;;14.98;33.32
35676;BME280;21790;42.668;23.298;2023-04-27T03:11:02;94461.34;;;14.92;33.10
35676;BME280;21790;42.668;23.298;2023-04-27T03:13:28;94463.63;;;14.94;33.23
35676;BME280;21790;42.668;23.298;2023-04-27T03:15:54;94465.84;;;14.90;33.18
35676;BME280;21790;42.668;23.298;2023-04-27T03:18:20;94468.44;;;14.93;33.20
35676;BME280;21790;42.668;23.298;2023-04-27T03:20:45;94466.66;;;14.96;32.91
35676;BME280;21790;42.668;23.298;2023-04-27T03:23:11;94465.94;;;15.01;32.96
35676;BME280;21790;42.668;23.298;2023-04-27T03:25:36;94465.69;;;14.99;33.03
35676;BME280;21790;42.668;23.298;2023-04-27T03:28:02;94464.88;;;14.93;33.45
35676;BME280;21790;42.668;23.298;2023-04-27T03:30:27;94477.09;;;15.06;32.88
35676;BME280;21790;42.668;23.298;2023-04-27T03:32:53;94475.00;;;14.96;33.04
35676;BME280;21790;42.668;23.298;2023-04-27T03:35:18;94481.88;;;15.00;33.02
35676;BME280;21790;42.668;23.298;2023-04-27T03:37:44;94476.63;;;15.08;32.89
35676;BME280;21790;42.668;23.298;2023-04-27T03:40:10;94474.25;;;14.95;32.99
35676;BME280;21790;42.668;23.298;2023-04-27T03:42:36;94482.59;;;14.95;32.85
35676;BME280;21790;42.668;23.298;2023-04-27T03:45:01;94482.69;;;14.75;33.56
35676;BME280;21790;42.668;23.298;2023-04-27T03:47:27;94492.09;;;14.78;32.95
35676;BME280;21790;42.668;23.298;2023-04-27T03:49:52;94491.53;;;14.74;33.14
35676;BME280;21790;42.668;23.298;2023-04-27T03:52:17;94486.63;;;14.89;32.86
35676;BME280;21790;42.668;23.298;2023-04-27T03:54:43;94488.41;;;14.92;32.91
35676;BME280;21790;42.668;23.298;2023-04-27T03:57:08;94501.69;;;15.14;32.51
35676;BME280;21790;42.668;23.298;2023-04-27T03:59:34;94499.69;;;15.14;32.57
35676;BME280;21790;42.668;23.298;2023-04-27T04:01:59;94507.47;;;15.04;32.72
35676;BME280;21790;42.668;23.298;2023-04-27T04:04:25;94506.22;;;15.11;33.16
35676;BME280;21790;42.668;23.298;2023-04-27T04:06:50;94510.66;;;14.92;32.92
35676;BME280;21790;42.668;23.298;2023-04-27T04:09:15;94515.44;;;14.91;33.33
35676;BME280;21790;42.668;23.298;2023-04-27T04:11:40;94510.97;;;14.99;32.70
35676;BME280;21790;42.668;23.298;2023-04-27T04:14:06;94518.81;;;15.01;32.89
35676;BME280;21790;42.668;23.298;2023-04-27T04:16:32;94514.78;;;15.02;32.66
35676;BME280;21790;42.668;23.298;2023-04-27T04:18:59;94521.91;;;15.08;32.46
35676;BME280;21790;42.668;23.298;2023-04-27T04:21:25;94523.19;;;15.13;32.32
35676;BME280;21790;42.668;23.298;2023-04-27T04:23:50;94520.81;;;15.00;32.67
35676;BME280;21790;42.668;23.298;2023-04-27T04:26:15;94530.56;;;14.85;32.67
35676;BME280;21790;42.668;23.298;2023-04-27T04:28:41;94523.81;;;14.91;32.50
35676;BME280;21790;42.668;23.298;2023-04-27T04:31:16;94528.69;;;15.02;32.86
35676;BME280;21790;42.668;23.298;2023-04-27T04:33:42;94536.94;;;15.59;48.61
35676;BME280;21790;42.668;23.298;2023-04-27T04:36:07;94542.84;;;16.43;42.28
35676;BME280;21790;42.668;23.298;2023-04-27T04:38:32;94529.25;;;17.06;40.07
35676;BME280;21790;42.668;23.298;2023-04-27T04:40:58;94533.50;;;17.57;36.53
35676;BME280;21790;42.668;23.298;2023-04-27T04:43:25;94538.53;;;17.86;35.34
35676;BME280;21790;42.668;23.298;2023-04-27T04:45:50;94535.19;;;18.05;34.25
35676;BME280;21790;42.668;23.298;2023-04-27T04:48:16;94543.66;;;17.82;29.38
35676;BME280;21790;42.668;23.298;2023-04-27T04:50:42;94547.53;;;17.12;29.62
35676;BME280;21790;42.668;23.298;2023-04-27T04:53:07;94552.34;;;17.06;29.72
35676;BME280;21790;42.668;23.298;2023-04-27T04:55:33;94553.34;;;17.03;29.94
35676;BME280;21790;42.668;23.298;2023-04-27T04:57:58;94557.94;;;17.06;30.02
35676;BME280;21790;42.668;23.298;2023-04-27T05:00:24;94571.38;;;17.08;30.35
35676;BME280;21790;42.668;23.298;2023-04-27T05:02:49;94557.66;;;16.93;29.78
35676;BME280;21790;42.668;23.298;2023-04-27T05:05:15;94567.59;;;17.00;29.73
35676;BME280;21790;42.668;23.298;2023-04-27T05:07:40;94563.22;;;16.71;30.30
35676;BME280;21790;42.668;23.298;2023-04-27T05:10:06;94569.72;;;16.40;30.48
35676;BME280;21790;42.668;23.298;2023-04-27T05:12:31;94578.06;;;16.29;30.78
35676;BME280;21790;42.668;23.298;2023-04-27T05:14:57;94578.56;;;16.33;31.12
35676;BME280;21790;42.668;23.298;2023-04-27T05:17:22;94581.34;;;16.27;30.27
35676;BME280;21790;42.668;23.298;2023-04-27T05:19:48;94575.50;;;16.20;31.57
35676;BME280;21790;42.668;23.298;2023-04-27T05:22:13;94580.78;;;16.12;30.72
35676;BME280;21790;42.668;23.298;2023-04-27T05:24:38;94588.66;;;16.19;31.00
35676;BME280;21790;42.668;23.298;2023-04-27T05:27:04;94589.34;;;16.03;31.30
35676;BME280;21790;42.668;23.298;2023-04-27T05:29:30;94587.47;;;15.83;31.82
35676;BME280;21790;42.668;23.298;2023-04-27T05:31:55;94587.78;;;15.91;31.62
35676;BME280;21790;42.668;23.298;2023-04-27T05:34:21;94591.63;;;16.05;31.47
35676;BME280;21790;42.668;23.298;2023-04-27T05:36:46;94591.03;;;15.89;31.57
35676;BME280;21790;42.668;23.298;2023-04-27T05:39:12;94596.16;;;15.97;32.27
35676;BME280;21790;42.668;23.298;2023-04-27T05:41:38;94597.44;;;16.01;31.74
35676;BME280;21790;42.668;23.298;2023-04-27T05:44:03;94603.34;;;15.72;32.25
35676;BME280;21790;42.668;23.298;2023-04-27T05:46:29;94593.56;;;15.50;32.66
35676;BME280;21790;42.668;23.298;2023-04-27T05:48:54;94597.53;;;15.38;32.48
35676;BME280;21790;42.668;23.298;2023-04-27T05:51:21;94593.50;;;15.39;33.00
35676;BME280;21790;42.668;23.298;2023-04-27T05:53:47;94598.19;;;15.54;32.74
35676;BME280;21790;42.668;23.298;2023-04-27T05:58:49;94582.91;;;15.43;32.67
35676;BME280;21790;42.668;23.298;2023-04-27T06:01:16;94592.97;;;15.35;32.54
35676;BME280;21790;42.668;23.298;2023-04-27T06:03:42;94615.31;;;15.46;32.80
35676;BME280;21790;42.668;23.298;2023-04-27T06:06:07;94600.97;;;15.54;32.69
35676;BME280;21790;42.668;23.298;2023-04-27T06:08:33;94598.44;;;15.56;32.89
35676;BME280;21790;42.668;23.298;2023-04-27T06:11:01;94610.28;;;15.50;32.88
35676;BME280;21790;42.668;23.298;2023-04-27T06:13:27;94604.00;;;15.56;32.98
35676;BME280;21790;42.668;23.298;2023-04-27T06:15:52;94603.81;;;15.59;32.94
35676;BME280;21790;42.668;23.298;2023-04-27T06:18:18;94606.44;;;15.42;32.43
35676;BME280;21790;42.668;23.298;2023-04-27T06:20:44;94596.22;;;15.34;33.08
35676;BME280;21790;42.668;23.298;2023-04-27T06:23:10;94594.25;;;15.40;33.08
35676;BME280;21790;42.668;23.298;2023-04-27T06:25:55;94604.97;;;15.89;33.03
35676;BME280;21790;42.668;23.298;2023-04-27T06:28:20;94595.03;;;15.77;33.28
35676;BME280;21790;42.668;23.298;2023-04-27T06:30:46;94588.53;;;15.92;32.91
35676;BME280;21790;42.668;23.298;2023-04-27T06:33:12;94604.19;;;16.43;48.13
35676;BME280;21790;42.668;23.298;2023-04-27T06:35:39;94593.72;;;17.25;35.48
35676;BME280;21790;42.668;23.298;2023-04-27T06:38:06;94597.03;;;17.29;32.13
35676;BME280;21790;42.668;23.298;2023-04-27T06:40:32;94586.38;;;17.44;32.07
35676;BME280;21790;42.668;23.298;2023-04-27T06:42:57;94587.63;;;17.21;31.96
35676;BME280;21790;42.668;23.298;2023-04-27T06:45:26;94582.81;;;17.60;31.83
35676;BME280;21790;42.668;23.298;2023-04-27T06:47:51;94591.19;;;17.49;31.53
35676;BME280;21790;42.668;23.298;2023-04-27T06:50:17;94592.47;;;17.37;29.96
35676;BME280;21790;42.668;23.298;2023-04-27T06:52:42;94584.06;;;17.37;30.12
35676;BME280;21790;42.668;23.298;2023-04-27T06:55:08;94586.09;;;17.20;30.53
35676;BME280;21790;42.668;23.298;2023-04-27T06:57:34;94589.44;;;17.18;30.58
35676;BME280;21790;42.668;23.298;2023-04-27T07:00:00;94583.31;;;17.20;30.39
35676;BME280;21790;42.668;23.298;2023-04-27T07:02:26;94582.03;;;17.37;30.71
35676;BME280;21790;42.668;23.298;2023-04-27T07:04:52;94588.91;;;17.36;30.77
35676;BME280;21790;42.668;23.298;2023-04-27T07:07:17;94573.41;;;17.35;30.31
35676;BME280;21790;42.668;23.298;2023-04-27T07:09:44;94575.41;;;17.51;30.59
35676;BME280;21790;42.668;23.298;2023-04-27T07:12:09;94572.13;;;17.53;30.81
35676;BME280;21790;42.668;23.298;2023-04-27T07:14:35;94574.16;;;17.52;30.77
35676;BME280;21790;42.668;23.298;2023-04-27T07:17:01;94572.41;;;17.61;30.52
35676;BME280;21790;42.668;23.298;2023-04-27T07:19:26;94577.97;;;17.49;29.86
35676;BME280;21790;42.668;23.298;2023-04-27T07:21:52;94581.28;;;17.31;30.64
35676;BME280;21790;42.668;23.298;2023-04-27T07:24:22;94574.91;;;17.53;30.08
35676;BME280;21790;42.668;23.298;2023-04-27T07:26:48;94569.81;;;17.79;30.23
35676;BME280;21790;42.668;23.298;2023-04-27T07:29:14;94568.03;;;17.87;36.27
35676;BME280;21790;42.668;23.298;2023-04-27T07:31:42;94566.72;;;18.00;30.16
35676;BME280;21790;42.668;23.298;2023-04-27T07:34:08;94570.31;;;17.94;30.30
35676;BME280;21790;42.668;23.298;2023-04-27T07:41:58;94564.03;;;18.35;29.80
35676;BME280;21790;42.668;23.298;2023-04-27T07:44:59;94567.41;;;18.74;29.53
35676;BME280;21790;42.668;23.298;2023-04-27T07:47:27;94572.41;;;18.93;29.46
35676;BME280;21790;42.668;23.298;2023-04-27T07:49:54;94554.72;;;19.09;29.08
35676;BME280;21790;42.668;23.298;2023-04-27T07:52:22;94563.22;;;19.28;28.68
35676;BME280;21790;42.668;23.298;2023-04-27T07:54:47;94556.09;;;19.27;28.30
35676;BME280;21790;42.668;23.298;2023-04-27T07:57:13;94557.56;;;19.03;27.94
35676;BME280;21790;42.668;23.298;2023-04-27T07:59:38;94561.69;;;18.97;27.88
35676;BME280;21790;42.668;23.298;2023-04-27T08:02:04;94567.03;;;18.95;28.54
35676;BME280;21790;42.668;23.298;2023-04-27T08:04:30;94559.25;;;18.76;29.12
35676;BME280;21790;42.668;23.298;2023-04-27T08:06:56;94565.25;;;18.97;28.40
35676;BME280;21790;42.668;23.298;2023-04-27T08:09:22;94565.13;;;19.14;27.84
35676;BME280;21790;42.668;23.298;2023-04-27T08:11:47;94568.94;;;19.11;27.95
35676;BME280;21790;42.668;23.298;2023-04-27T08:14:13;94573.03;;;19.45;27.48
35676;BME280;21790;42.668;23.298;2023-04-27T08:16:40;94569.94;;;19.49;27.10
35676;BME280;21790;42.668;23.298;2023-04-27T08:19:09;94566.91;;;19.47;27.36
35676;BME280;21790;42.668;23.298;2023-04-27T08:21:36;94559.91;;;19.29;27.96
35676;BME280;21790;42.668;23.298;2023-04-27T08:24:03;94564.78;;;19.23;27.78
35676;BME280;21790;42.668;23.298;2023-04-27T08:26:29;94564.44;;;19.32;27.52
35676;BME280;21790;42.668;23.298;2023-04-27T08:28:58;94560.84;;;19.37;27.99
35676;BME280;21790;42.668;23.298;2023-04-27T08:31:25;94567.81;;;19.60;27.41
35676;BME280;21790;42.668;23.298;2023-04-27T08:33:51;94544.66;;;19.54;27.67
35676;BME280;21790;42.668;23.298;2023-04-27T08:36:19;94563.13;;;19.93;27.52
35676;BME280;21790;42.668;23.298;2023-04-27T08:38:45;94566.19;;;19.95;26.73
35676;BME280;21790;42.668;23.298;2023-04-27T08:41:17;94568.22;;;19.70;27.01
35676;BME280;21790;42.668;23.298;2023-04-27T08:43:43;94562.16;;;19.36;27.29
35676;BME280;21790;42.668;23.298;2023-04-27T08:46:09;94560.41;;;19.28;27.90
35676;BME280;21790;42.668;23.298;2023-04-27T08:48:35;94570.94;;;18.80;28.42
35676;BME280;21790;42.668;23.298;2023-04-27T08:51:02;94570.88;;;18.92;28.21
35676;BME280;21790;42.668;23.298;2023-04-27T08:53:28;94566.38;;;18.77;28.63
35676;BME280;21790;42.668;23.298;2023-04-27T08:55:54;94561.75;;;19.21;28.19
35676;BME280;21790;42.668;23.298;2023-04-27T08:58:21;94567.00;;;19.36;27.57
35676;BME280;21790;42.668;23.298;2023-04-27T09:00:47;94561.25;;;19.52;27.39
35676;BME280;21790;42.668;23.298;2023-04-27T09:03:23;94566.63;;;19.75;26.51
35676;BME280;21790;42.668;23.298;2023-04-27T09:05:49;94561.47;;;19.84;26.99
35676;BME280;21790;42.668;23.298;2023-04-27T09:08:15;94554.84;;;19.82;27.37
35676;BME280;21790;42.668;23.298;2023-04-27T09:13:10;94555.19;;;19.97;26.66
35676;BME280;21790;42.668;23.298;2023-04-27T09:18:19;94555.63;;;20.25;26.53
35676;BME280;21790;42.668;23.298;2023-04-27T09:20:46;94561.91;;;20.13;26.37
35676;BME280;21790;42.668;23.298;2023-04-27T09:25:50;94553.78;;;20.33;26.36
35676;BME280;21790;42.668;23.298;2023-04-27T09:28:16;94549.19;;;20.55;25.41
35676;BME280;21790;42.668;23.298;2023-04-27T09:31:00;94548.91;;;20.90;26.00
35676;BME280;21790;42.668;23.298;2023-04-27T09:33:27;94545.44;;;20.65;25.55
35676;BME280;21790;42.668;23.298;2023-04-27T09:35:54;94546.44;;;20.25;25.44
35676;BME280;21790;42.668;23.298;2023-04-27T09:38:21;94533.09;;;20.12;25.88
35676;BME280;21790;42.668;23.298;2023-04-27T09:40:48;94540.69;;;20.17;25.33
35676;BME280;21790;42.668;23.298;2023-04-27T09:43:14;94533.53;;;20.40;26.12
35676;BME280;21790;42.668;23.298;2023-04-27T09:45:40;94538.16;;;20.38;26.09
35676;BME280;21790;42.668;23.298;2023-04-27T09:48:06;94531.09;;;20.31;25.97
35676;BME280;21790;42.668;23.298;2023-04-27T09:50:37;94538.00;;;20.68;25.19
35676;BME280;21790;42.668;23.298;2023-04-27T09:53:15;94525.94;;;20.54;25.05
35676;BME280;21790;42.668;23.298;2023-04-27T10:01:36;94520.72;;;20.45;25.25
35676;BME280;21790;42.668;23.298;2023-04-27T10:04:32;94523.13;;;20.35;24.91
35676;BME280;21790;42.668;23.298;2023-04-27T10:07:12;94522.69;;;20.50;25.31
35676;BME280;21790;42.668;23.298;2023-04-27T10:09:44;94522.75;;;20.63;25.67
35676;BME280;21790;42.668;23.298;2023-04-27T10:12:15;94520.94;;;20.66;24.88
35676;BME280;21790;42.668;23.298;2023-04-27T10:15:13;94522.75;;;20.82;24.69
35676;BME280;21790;42.668;23.298;2023-04-27T10:17:47;94521.16;;;20.68;24.09
35676;BME280;21790;42.668;23.298;2023-04-27T10:20:13;94517.22;;;20.58;25.15
35676;BME280;21790;42.668;23.298;2023-04-27T10:22:46;94515.84;;;20.64;24.37
35676;BME280;21790;42.668;23.298;2023-04-27T10:25:28;94505.69;;;20.61;24.52
35676;BME280;21790;42.668;23.298;2023-04-27T10:27:59;94525.59;;;20.44;24.24
35676;BME280;21790;42.668;23.298;2023-04-27T10:30:30;94511.16;;;20.54;24.61
35676;BME280;21790;42.668;23.298;2023-04-27T10:32:58;94509.56;;;20.39;24.32
35676;BME280;21790;42.668;23.298;2023-04-27T10:35:36;94513.88;;;20.40;24.37
35676;BME280;21790;42.668;23.298;2023-04-27T10:38:06;94510.47;;;20.66;24.66
35676;BME280;21790;42.668;23.298;2023-04-27T10:40:33;94515.84;;;20.83;25.36
35676;BME280;21790;42.668;23.298;2023-04-27T10:43:09;94509.84;;;21.24;24.25
35676;BME280;21790;42.668;23.298;2023-04-27T10:45:34;94511.06;;;21.28;24.42
35676;BME280;21790;42.668;23.298;2023-04-27T10:48:00;94508.16;;;21.34;24.76
35676;BME280;21790;42.668;23.298;2023-04-27T10:50:26;94517.38;;;21.48;24.61
35676;BME280;21790;42.668;23.298;2023-04-27T10:52:52;94510.66;;;21.38;24.38
35676;BME280;21790;42.668;23.298;2023-04-27T10:55:19;94502.91;;;21.57;24.60
35676;BME280;21790;42.668;23.298;2023-04-27T10:57:55;94510.38;;;21.54;24.73
35676;BME280;21790;42.668;23.298;2023-04-27T11:00:22;94510.28;;;21.28;24.20
35676;BME280;21790;42.668;23.298;2023-04-27T11:02:48;94505.44;;;21.28;23.45
35676;BME280;21790;42.668;23.298;2023-04-27T11:05:18;94511.47;;;21.19;23.55
35676;BME280;21790;42.668;23.298;2023-04-27T11:07:44;94511.06;;;20.78;24.23
35676;BME280;21790;42.668;23.298;2023-04-27T11:10:14;94500.25;;;20.50;24.04
35676;BME280;21790;42.668;23.298;2023-04-27T11:12:40;94509.03;;;20.60;25.06
35676;BME280;21790;42.668;23.298;2023-04-27T11:15:07;94507.03;;;20.92;25.42
35676;BME280;21790;42.668;23.298;2023-04-27T11:17:33;94502.97;;;21.06;24.89
35676;BME280;21790;42.668;23.298;2023-04-27T11:19:58;94508.81;;;21.08;24.65
35676;BME280;21790;42.668;23.298;2023-04-27T11:22:24;94501.84;;;21.28;24.62
35676;BME280;21790;42.668;23.298;2023-04-27T11:24:51;94511.09;;;21.10;26.22
35676;BME280;21790;42.668;23.298;2023-04-27T11:27:18;94510.63;;;21.06;24.51
35676;BME280;21790;42.668;23.298;2023-04-27T11:29:44;94519.94;;;20.82;24.91
35676;BME280;21790;42.668;23.298;2023-04-27T11:32:20;94515.13;;;20.96;24.38
35676;BME280;21790;42.668;23.298;2023-04-27T11:34:50;94520.75;;;20.96;24.49
35676;BME280;21790;42.668;23.298;2023-04-27T11:37:24;94515.28;;;20.84;24.68
35676;BME280;21790;42.668;23.298;2023-04-27T11:39:50;94516.28;;;20.87;24.80
35676;BME280;21790;42.668;23.298;2023-04-27T11:42:25;94525.47;;;20.87;24.41
35676;BME280;21790;42.668;23.298;2023-04-27T11:45:09;94521.56;;;21.09;24.71
35676;BME280;21790;42.668;23.298;2023-04-27T11:47:35;94528.38;;;21.14;24.81
35676;BME280;21790;42.668;23.298;2023-04-27T11:50:03;94516.47;;;21.26;24.08
35676;BME280;21790;42.668;23.298;2023-04-27T11:52:30;94520.31;;;20.92;24.29
35676;BME280;21790;42.668;23.298;2023-04-27T11:54:58;94528.66;;;20.97;24.23
35676;BME280;21790;42.668;23.298;2023-04-27T11:57:28;94522.34;;;20.91;24.75
35676;BME280;21790;42.668;23.298;2023-04-27T11:59:55;94536.47;;;21.04;24.18
35676;BME280;21790;42.668;23.298;2023-04-27T12:02:22;94530.66;;;20.83;24.11
35676;BME280;21790;42.668;23.298;2023-04-27T12:04:51;94526.31;;;20.82;23.96
35676;BME280;21790;42.668;23.298;2023-04-27T12:07:17;94532.81;;;20.91;24.20
35676;BME280;21790;42.668;23.298;2023-04-27T12:09:43;94532.31;;;20.73;24.45
35676;BME280;21790;42.668;23.298;2023-04-27T12:12:09;94533.69;;;20.48;23.78
35676;BME280;21790;42.668;23.298;2023-04-27T12:14:35;94535.13;;;20.55;24.27
35676;BME280;21790;42.668;23.298;2023-04-27T12:17:01;94529.44;;;20.41;24.60
35676;BME280;21790;42.668;23.298;2023-04-27T12:19:27;94539.31;;;20.24;25.38
35676;BME280;21790;42.668;23.298;2023-04-27T12:21:54;94533.00;;;20.42;24.59
35676;BME280;21790;42.668;23.298;2023-04-27T12:24:19;94522.16;;;20.52;24.77
35676;BME280;21790;42.668;23.298;2023-04-27T12:26:46;94532.94;;;20.48;24.26
35676;BME280;21790;42.668;23.298;2023-04-27T12:29:12;94527.75;;;20.52;24.83
35676;BME280;21790;42.668;23.298;2023-04-27T12:31:38;94531.19;;;20.63;24.22
35676;BME280;21790;42.668;23.298;2023-04-27T12:34:03;94532.34;;;20.55;24.99
35676;BME280;21790;42.668;23.298;2023-04-27T12:36:29;94530.13;;;20.48;24.72
35676;BME280;21790;42.668;23.298;2023-04-27T12:39:11;94537.63;;;20.77;24.53
35676;BME280;21790;42.668;23.298;2023-04-27T12:41:37;94539.47;;;20.13;25.41
35676;BME280;21790;42.668;23.298;2023-04-27T12:44:03;94539.28;;;20.05;25.44
35676;BME280;21790;42.668;23.298;2023-04-27T12:46:29;94533.31;;;20.14;24.78
35676;BME280;21790;42.668;23.298;2023-04-27T12:48:55;94541.28;;;20.10;25.45
35676;BME280;21790;42.668;23.298;2023-04-27T12:51:21;94542.50;;;20.15;24.97
35676;BME280;21790;42.668;23.298;2023-04-27T12:53:47;94543.50;;;20.17;25.01
35676;BME280;21790;42.668;23.298;2023-04-27T12:56:13;94541.16;;;20.21;25.30
35676;BME280;21790;42.668;23.298;2023-04-27T12:58:39;94545.81;;;20.13;25.48
35676;BME280;21790;42.668;23.298;2023-04-27T13:01:06;94540.06;;;20.24;25.10
35676;BME280;21790;42.668;23.298;2023-04-27T13:03:41;94536.00;;;20.25;25.31
35676;BME280;21790;42.668;23.298;2023-04-27T13:06:07;94534.47;;;20.24;25.09
35676;BME280;21790;42.668;23.298;2023-04-27T13:08:34;94536.22;;;20.27;24.50
35676;BME280;21790;42.668;23.298;2023-04-27T13:11:00;94534.34;;;20.35;24.67